Airfield :
LOGIN :

Register | Disclaimer

   EN    FR    IT 

 










Legend :    VFR   Marginal VFR   IFR   Intensive IFR   Very Intensive IFR
Visi :
Ceiling :
>= 8 km
>= 3000ft
5 to 8 km
1000 to 3000 ft
1500m to 5 km
500 to 1000 ft
800 to 1500m
200 to 500 ft
< 800m
< 200 ft
Symbols :   Thunderstorms  Fog  Heavy snow  Heavy precipitations  Wind > 20 kt
SIGMETs :     Misc.  Thunderstorms  Icing  Turbulence  Mountain Waves  Volcanic Ashes







- Airport Elevation : 1910 ft
- IATA code : RDZ
- Download approach charts


LFCR - Rodez

CURRENT METAR :
  • 172130Z AUTO 30005KT 9999 FEW023 BKN039 01/01 Q1018 TEMPO 1200 BCFG BKN001

EXPIRED METARs :
  • 172100Z AUTO 29006KT 9999 BKN030 BKN035 01/01 Q1018 TEMPO 1200 BCFG BKN001
  • 172030Z AUTO 28009KT CAVOK 02/01 Q1018 TEMPO 1200 BCFG BKN001
  • 172000Z AUTO 29007KT 9999 SCT013 BKN024 BKN042 02/01 Q1017 TEMPO 3000 BR BKN003
  • 171930Z AUTO 27009KT 9999 SCT015 BKN021 BKN037 02/01 Q1017 TEMPO 3000 BR BKN003
  • 171900Z AUTO 28005KT 9999 SCT012 02/00 Q1017 TEMPO 3000 BR BKN003

TAF AMD TAF LFCR
Valid from the 17 at 18:00 until the 18 at 18:00 UTC


171809Z 1718/1818 30008KT 9999 BKN013
BECMG 1719/1721 6000 BKN006
TEMPO 1720/1811 3000 BR BKN003
PROB40
TEMPO 1722/1810 1200 BCFG BKN001
BECMG 1812/1814 BKN012
No reported NOTAMs for that airfield.



MET'MAP, your aeronautical weather chart ! - Copyright ORBIFLY December 2007 - Disclaimer

ORBIFLY MET'MAP TEAM :

Programming & Development : Alexandra Zaïnal
Concept & Development : Baudouin d'Aumeries
Co-Development & Prog : Marc-Olivier Méhu
Technical & hardware support : Manuel Goepfert

Contact : metmap@orbifly.com




SOURCES & CREDITS :

   NOAA